Accueil
METAR-TAF:

METAR-TAF

Aéroports :

Aéroport international de Genève

Genève, Suisse

latitude: 46-15N, longitude: 006-08E, altitude: 420 m

Observation

Le bulletin a été fait il y a 19 minutes, à 12:20 UTC
Vent 12 kt de nord-est, variant entre nord et est/nord-est
Température 16°C
Humidité 45%
Pression 1032 hPa
Visibilité 10 km ou plus
pas de nuages en-dessous de 1500 mètres et pas de cumulonimbus.

METAR: LSGG 251220Z 05012KT 010V070 CAVOK 16/04 Q1032 NOSIG

Heure: 14:39 (12:39 UTC)

Prévision

Le bulletin a été fait il y a 1 heure et 14 minutes, à 11:25 UTC
Prévision valable du 25 à 12 UTC au 26 à 18 UTC
Vent 12 kt de nord-est avec des rafales jusqu'à 25 kt
Visibilité 10 km ou plus
pas de nuages en-dessous de 1500 mètres et pas de cumulonimbus.
Evoluant progressivement
du 25 à 21 UTC au 25 à 23 UTC
Vent 3 kt de direction variable

TAF: LSGG 251125Z 2512/2618 04012G25KT CAVOK TX17/2515Z TN05/2605Z TX19/2615Z BECMG 2521/2523 VRB03KT

Observations et prévisions météorologiques de plus de 4000 aéroports (messages METAR et TAF).

Les stations disponibles sont représentées par des disques jaunes et rouges sur la carte.

Passer la souris dessus pour voir le nom de la station.

Cliquer dessus pour voir les observations et prévisions météorologiques.

Pour changer de carte: cliquez sur les boutons verts avec une croix noire pour zoomer, sur le bouton vert avec un tiret pour effectuer un zoom arrière, ou sur les flèches vertes pour les cartes adjacentes.


METAR-TAF: